createdAt,value
2016-11-22T00:00:35.982Z,0
2016-11-22T00:05:40.751Z,0
2016-11-22T00:10:44.847Z,0
2016-11-22T00:15:49.272Z,0
2016-11-22T00:20:53.695Z,0
2016-11-22T00:25:58.124Z,0
2016-11-22T00:31:02.217Z,0
2016-11-22T00:36:06.645Z,0
2016-11-22T00:41:10.740Z,0
2016-11-22T00:46:15.188Z,0
2016-11-22T00:51:19.286Z,0
2016-11-22T00:56:23.375Z,0
2016-11-22T01:01:27.462Z,0
2016-11-22T01:06:32.228Z,0
2016-11-22T01:11:36.655Z,0
2016-11-22T01:16:41.082Z,0
2016-11-22T01:21:45.187Z,0
2016-11-22T01:26:49.619Z,0
2016-11-22T01:31:53.708Z,0
2016-11-22T01:36:57.797Z,0
2016-11-22T01:42:01.891Z,0
2016-11-22T01:47:05.982Z,0
2016-11-22T01:52:10.072Z,0
2016-11-22T01:57:14.494Z,0
2016-11-22T02:02:18.927Z,0
2016-11-22T02:07:23.356Z,0
2016-11-22T02:12:27.452Z,0
2016-11-22T02:17:31.883Z,0
2016-11-22T02:22:36.353Z,0
2016-11-22T02:27:41.136Z,0
2016-11-22T02:32:45.905Z,0
2016-11-22T02:37:50.018Z,0
2016-11-22T02:42:54.114Z,0
2016-11-22T02:47:58.206Z,0
2016-11-22T02:53:02.645Z,0
2016-11-22T02:58:07.076Z,0
2016-11-22T03:03:11.171Z,0
2016-11-22T03:08:15.259Z,0
2016-11-22T03:13:19.564Z,0
2016-11-22T03:18:23.656Z,0
2016-11-22T03:23:27.741Z,0
2016-11-22T03:28:31.840Z,0
2016-11-22T03:33:36.607Z,0
2016-11-22T03:38:40.707Z,0
2016-11-22T03:43:44.802Z,0
2016-11-22T03:48:48.908Z,0
2016-11-22T03:53:53.003Z,0
2016-11-22T03:58:57.100Z,0
2016-11-22T04:04:01.530Z,0
2016-11-22T04:09:05.952Z,0
2016-11-22T04:14:10.706Z,0
2016-11-22T04:19:15.136Z,0
2016-11-22T04:24:19.566Z,0
2016-11-22T04:29:23.657Z,0
2016-11-22T04:34:27.763Z,0
2016-11-22T04:39:32.189Z,0
2016-11-22T04:44:36.616Z,0
2016-11-22T04:49:41.051Z,0
2016-11-22T04:54:45.140Z,0
2016-11-22T04:59:49.572Z,0
2016-11-22T05:04:53.670Z,0
2016-11-22T05:09:57.771Z,0
2016-11-22T05:15:02.201Z,0
2016-11-22T05:20:06.633Z,0
2016-11-22T05:25:11.089Z,0
2016-11-22T05:30:15.168Z,0
2016-11-22T05:35:19.939Z,0
2016-11-22T05:40:24.035Z,0
2016-11-22T05:45:28.121Z,0
2016-11-22T05:50:32.545Z,0
2016-11-22T05:55:36.972Z,0
2016-11-22T06:00:41.059Z,0
2016-11-22T06:05:45.149Z,0
2016-11-22T06:10:49.577Z,0
2016-11-22T06:15:53.687Z,1
2016-11-22T06:20:58.538Z,0
2016-11-22T06:26:02.997Z,3
2016-11-22T06:31:07.088Z,1
2016-11-22T06:36:11.637Z,1
2016-11-22T06:41:16.061Z,2
2016-11-22T06:46:20.490Z,4
2016-11-22T06:51:24.919Z,7
2016-11-22T06:56:29.347Z,11
2016-11-22T07:01:33.445Z,22
2016-11-22T07:06:37.545Z,23
2016-11-22T07:11:41.638Z,37
2016-11-22T07:16:46.409Z,54
2016-11-22T07:21:50.842Z,68
2016-11-22T07:26:54.949Z,67
2016-11-22T07:31:59.371Z,83
2016-11-22T07:37:03.811Z,104
2016-11-22T07:42:07.908Z,281
2016-11-22T07:47:12.008Z,270
2016-11-22T07:52:16.448Z,332
2016-11-22T07:57:20.542Z,374
2016-11-22T08:02:24.983Z,392
2016-11-22T08:07:29.087Z,441
2016-11-22T08:12:33.524Z,312
2016-11-22T08:17:38.291Z,401
2016-11-22T08:22:42.392Z,374
2016-11-22T08:27:46.485Z,350
2016-11-22T08:32:51.586Z,298
2016-11-22T08:37:55.687Z,346
2016-11-22T08:43:00.112Z,390
2016-11-22T08:48:04.549Z,396
2016-11-22T08:53:08.644Z,315
2016-11-22T08:58:12.742Z,423
2016-11-22T09:03:17.174Z,532
2016-11-22T09:08:21.270Z,609
2016-11-22T09:13:25.364Z,787
2016-11-22T09:18:29.797Z,805
2016-11-22T09:23:34.162Z,858
2016-11-22T09:28:38.717Z,901
2016-11-22T09:33:43.482Z,805
2016-11-22T09:38:47.586Z,760
2016-11-22T09:43:51.680Z,734
2016-11-22T09:48:55.774Z,682
2016-11-22T09:53:59.869Z,671
2016-11-22T09:59:04.302Z,706
2016-11-22T10:04:08.400Z,690
2016-11-22T10:09:12.827Z,639
2016-11-22T10:14:17.255Z,569
2016-11-22T10:19:21.347Z,623
2016-11-22T10:24:25.444Z,552
2016-11-22T10:29:29.540Z,522
2016-11-22T10:34:33.975Z,529
2016-11-22T10:39:38.739Z,548
2016-11-22T10:44:43.147Z,587
2016-11-22T10:49:47.239Z,637
2016-11-22T10:54:51.663Z,620
2016-11-22T10:59:56.091Z,574
2016-11-22T11:05:00.183Z,656
2016-11-22T11:10:04.939Z,704
2016-11-22T11:15:10.052Z,727
2016-11-22T11:20:14.481Z,722
2016-11-22T11:25:18.909Z,725
2016-11-22T11:30:23.491Z,689
2016-11-22T11:35:27.593Z,721
2016-11-22T11:40:32.343Z,763
2016-11-22T11:45:37.109Z,764
2016-11-22T11:50:41.548Z,763
2016-11-22T11:55:45.977Z,774
2016-11-22T12:00:50.079Z,770
2016-11-22T12:05:54.179Z,765
2016-11-22T12:10:58.267Z,723
2016-11-22T12:16:03.029Z,691
2016-11-22T12:21:07.789Z,642
2016-11-22T12:26:12.215Z,607
2016-11-22T12:31:16.641Z,567
2016-11-22T12:36:21.071Z,568
2016-11-22T12:41:25.508Z,673
2016-11-22T12:46:29.934Z,552
2016-11-22T12:51:34.374Z,550
2016-11-22T12:56:38.476Z,542
2016-11-22T13:01:42.572Z,497
2016-11-22T13:06:46.719Z,496
2016-11-22T13:11:50.808Z,492
2016-11-22T13:16:55.239Z,458
2016-11-22T13:21:59.336Z,416
2016-11-22T13:27:03.929Z,407
2016-11-22T13:32:08.068Z,379
2016-11-22T13:37:12.507Z,346
2016-11-22T13:42:16.606Z,308
2016-11-22T13:47:21.032Z,286
2016-11-22T13:52:25.129Z,260
2016-11-22T13:57:29.261Z,244
2016-11-22T14:02:33.692Z,229
2016-11-22T14:07:37.810Z,210
2016-11-22T14:12:42.237Z,179
2016-11-22T14:17:46.673Z,164
2016-11-22T14:22:50.776Z,139
2016-11-22T14:27:54.880Z,119
2016-11-22T14:32:59.202Z,106
2016-11-22T14:38:03.967Z,95
2016-11-22T14:43:08.062Z,75
2016-11-22T14:48:12.491Z,62
2016-11-22T14:53:16.923Z,47
2016-11-22T14:58:21.016Z,36
2016-11-22T15:03:25.445Z,28
2016-11-22T15:08:30.278Z,21
2016-11-22T15:13:34.381Z,15
2016-11-22T15:18:38.547Z,10
2016-11-22T15:23:42.657Z,7
2016-11-22T15:28:47.087Z,4
2016-11-22T15:33:51.287Z,2
2016-11-22T15:38:55.386Z,1
2016-11-22T15:43:59.507Z,1
2016-11-22T15:49:03.978Z,0
2016-11-22T15:54:08.085Z,0
2016-11-22T15:59:12.178Z,0
2016-11-22T16:04:16.609Z,0
2016-11-22T16:09:20.709Z,0
2016-11-22T16:14:24.798Z,0
2016-11-22T16:19:28.917Z,0
2016-11-22T16:24:33.375Z,0
2016-11-22T16:29:37.795Z,0
2016-11-22T16:34:42.225Z,0
2016-11-22T16:39:46.323Z,0
2016-11-22T16:44:50.417Z,0
2016-11-22T16:49:55.177Z,0
2016-11-22T16:54:59.269Z,0
2016-11-22T17:00:03.367Z,0
2016-11-22T17:05:07.931Z,0
2016-11-22T17:10:12.056Z,0
2016-11-22T17:15:16.155Z,0
2016-11-22T17:20:20.924Z,0
2016-11-22T17:25:25.032Z,0
2016-11-22T17:30:29.468Z,0
2016-11-22T17:35:33.585Z,0
2016-11-22T17:40:37.690Z,0
2016-11-22T17:45:41.786Z,0
2016-11-22T17:50:45.881Z,0
2016-11-22T17:55:49.970Z,0
2016-11-22T18:00:54.057Z,0
2016-11-22T18:05:58.481Z,0
2016-11-22T18:11:02.568Z,0
2016-11-22T18:16:06.695Z,0
2016-11-22T18:21:11.122Z,0
2016-11-22T18:26:15.230Z,0
2016-11-22T18:31:19.670Z,0
2016-11-22T18:36:23.759Z,0
2016-11-22T18:41:27.851Z,0
2016-11-22T18:46:32.275Z,0
2016-11-22T18:51:36.363Z,0
2016-11-22T18:56:40.792Z,0
2016-11-22T19:01:44.890Z,0
2016-11-22T19:06:48.980Z,0
2016-11-22T19:11:54.077Z,0
2016-11-22T19:16:58.168Z,0
2016-11-22T19:22:02.267Z,0
2016-11-22T19:27:06.567Z,0
2016-11-22T19:32:10.993Z,0
2016-11-22T19:37:15.087Z,0
2016-11-22T19:42:19.513Z,0
2016-11-22T19:47:23.605Z,0
2016-11-22T19:52:27.715Z,0
2016-11-22T19:57:31.827Z,0
2016-11-22T20:02:36.258Z,0
2016-11-22T20:07:40.349Z,0
2016-11-22T20:12:45.133Z,0
2016-11-22T20:17:49.221Z,0
2016-11-22T20:22:53.663Z,0
2016-11-22T20:27:58.089Z,0
2016-11-22T20:33:02.557Z,0
2016-11-22T20:38:18.552Z,0
2016-11-22T20:43:22.657Z,0
2016-11-22T20:48:26.765Z,0
2016-11-22T20:53:31.218Z,0
2016-11-22T20:58:35.662Z,0
2016-11-22T21:03:40.378Z,0
2016-11-22T21:08:44.835Z,0
2016-11-22T21:13:49.276Z,0
2016-11-22T21:18:53.365Z,0
2016-11-22T21:23:57.463Z,0
2016-11-22T21:29:01.578Z,0
2016-11-22T21:34:05.680Z,0
2016-11-22T21:39:10.448Z,0
2016-11-22T21:44:14.541Z,0
2016-11-22T21:49:18.665Z,0
2016-11-22T21:54:22.768Z,0
2016-11-22T21:59:26.866Z,0
2016-11-22T22:04:30.967Z,0
2016-11-22T22:09:35.270Z,0
2016-11-22T22:14:39.349Z,0
2016-11-22T22:19:44.118Z,0
2016-11-22T22:24:48.220Z,0
2016-11-22T22:29:52.651Z,0
2016-11-22T22:34:57.086Z,0
2016-11-22T22:40:01.185Z,0
2016-11-22T22:45:05.609Z,0
2016-11-22T22:50:09.715Z,0
2016-11-22T22:55:13.807Z,0
2016-11-22T23:00:17.896Z,0
2016-11-22T23:05:21.991Z,0
2016-11-22T23:10:26.820Z,0
2016-11-22T23:15:30.913Z,0
2016-11-22T23:20:35.333Z,0
2016-11-22T23:25:39.826Z,0
2016-11-22T23:30:44.599Z,0
2016-11-22T23:35:48.686Z,0
2016-11-22T23:40:52.782Z,0
2016-11-22T23:45:56.872Z,0
2016-11-22T23:51:00.965Z,0
2016-11-22T23:56:05.387Z,0
